createdAt,value
2023-03-02T00:01:10.915Z,100641.19
2023-03-02T00:03:40.697Z,100650.19
2023-03-02T00:06:09.236Z,100639.94
2023-03-02T00:08:38.360Z,100641.28
2023-03-02T00:11:05.456Z,100638.56
2023-03-02T00:13:34.407Z,100639.59
2023-03-02T00:16:01.272Z,100640.56
2023-03-02T00:18:27.962Z,100647.56
2023-03-02T00:20:54.544Z,100641.53
2023-03-02T00:23:21.160Z,100643.56
2023-03-02T00:25:47.899Z,100642.59
2023-03-02T00:28:14.620Z,100648.44
2023-03-02T00:30:41.206Z,100653.66
2023-03-02T00:33:07.807Z,100654.63
2023-03-02T00:35:39.235Z,100647.88
2023-03-02T00:38:07.413Z,100646.75
2023-03-02T00:40:35.058Z,100645.72
2023-03-02T00:43:01.618Z,100652.41
2023-03-02T00:45:28.193Z,100647.22
2023-03-02T00:47:55.004Z,100644.63
2023-03-02T00:50:21.609Z,100648.00
2023-03-02T00:52:48.228Z,100654.06
2023-03-02T00:55:14.837Z,100652.72
2023-03-02T00:57:41.395Z,100648.75
2023-03-02T01:00:08.973Z,100645.25
2023-03-02T01:02:39.360Z,100648.84
2023-03-02T01:05:06.229Z,100642.50
2023-03-02T01:07:33.445Z,100641.66
2023-03-02T01:10:00.002Z,100633.16
2023-03-02T01:12:26.607Z,100631.72
2023-03-02T01:14:53.562Z,100632.44
2023-03-02T01:17:22.146Z,100627.50
2023-03-02T01:19:48.791Z,100617.53
2023-03-02T01:22:15.404Z,100615.97
2023-03-02T01:24:42.014Z,100606.69
2023-03-02T01:27:08.666Z,100613.16
2023-03-02T01:29:35.369Z,100616.44
2023-03-02T01:32:02.519Z,100611.72
2023-03-02T01:34:29.196Z,100604.38
2023-03-02T01:36:55.895Z,100602.50
2023-03-02T01:39:23.112Z,100602.81
2023-03-02T01:41:51.379Z,100603.03
2023-03-02T01:44:41.980Z,100594.53
2023-03-02T01:47:28.382Z,100594.72
2023-03-02T01:50:03.100Z,100588.94
2023-03-02T01:52:33.866Z,100594.34
2023-03-02T01:55:04.127Z,100587.72
2023-03-02T01:57:34.675Z,100586.69
2023-03-02T02:00:08.675Z,100583.47
2023-03-02T02:02:36.408Z,100580.03
2023-03-02T02:05:04.245Z,100580.03
2023-03-02T02:07:32.438Z,100585.44
2023-03-02T02:09:59.651Z,100582.97
2023-03-02T02:12:26.188Z,100589.25
2023-03-02T02:14:54.199Z,100583.91
2023-03-02T02:17:20.918Z,100581.44
2023-03-02T02:19:56.339Z,100573.72
2023-03-02T02:22:58.196Z,100574.19
2023-03-02T02:26:02.337Z,100569.66
2023-03-02T02:28:41.019Z,100574.38
2023-03-02T02:31:23.122Z,100575.09
2023-03-02T02:33:55.269Z,100579.38
2023-03-02T02:36:25.802Z,100567.75
2023-03-02T02:38:56.221Z,100572.44
2023-03-02T02:41:28.526Z,100574.66
2023-03-02T02:43:56.011Z,100568.22
2023-03-02T02:46:23.584Z,100575.88
2023-03-02T02:48:50.241Z,100565.56
2023-03-02T02:51:23.861Z,100571.16
2023-03-02T02:53:59.941Z,100564.88
2023-03-02T02:56:33.790Z,100568.47
2023-03-02T02:59:18.424Z,100554.94
2023-03-02T03:01:46.341Z,100560.75
2023-03-02T03:04:17.915Z,100561.84
2023-03-02T03:10:17.848Z,100564.09
2023-03-02T03:12:44.731Z,100564.38
2023-03-02T03:15:12.179Z,100562.88
2023-03-02T03:17:38.801Z,100558.34
2023-03-02T03:20:09.480Z,100562.16
2023-03-02T03:22:38.421Z,100546.56
2023-03-02T03:25:05.909Z,100549.69
2023-03-02T03:27:32.547Z,100556.97
2023-03-02T03:30:01.869Z,100555.94
2023-03-02T03:32:28.599Z,100555.28
2023-03-02T03:34:55.263Z,100555.03
2023-03-02T03:37:22.034Z,100558.88
2023-03-02T03:39:48.735Z,100560.34
2023-03-02T03:42:15.386Z,100569.38
2023-03-02T03:44:42.032Z,100560.50
2023-03-02T03:47:08.643Z,100570.81
2023-03-02T03:49:35.471Z,100575.19
2023-03-02T03:52:03.547Z,100568.78
2023-03-02T03:54:35.286Z,100562.38
2023-03-02T03:57:01.938Z,100563.94
2023-03-02T03:59:28.550Z,100565.00
2023-03-02T04:01:59.317Z,100563.16
2023-03-02T04:04:29.550Z,100569.59
2023-03-02T04:06:56.779Z,100567.81
2023-03-02T04:09:29.349Z,100564.22
2023-03-02T04:11:56.196Z,100563.06
2023-03-02T04:14:24.192Z,100559.63
2023-03-02T04:16:52.071Z,100556.84
2023-03-02T04:19:18.978Z,100553.94
2023-03-02T04:21:48.380Z,100555.44
2023-03-02T04:24:16.519Z,100552.66
2023-03-02T04:26:44.084Z,100554.47
2023-03-02T04:29:12.191Z,100559.22
2023-03-02T04:31:39.392Z,100551.28
2023-03-02T04:34:07.289Z,100548.63
2023-03-02T04:36:36.527Z,100558.31
2023-03-02T04:39:05.124Z,100558.41
2023-03-02T04:41:32.155Z,100553.75
2023-03-02T04:43:58.835Z,100561.97
2023-03-02T04:46:27.154Z,100561.19
2023-03-02T04:48:54.342Z,100558.22
2023-03-02T04:51:25.944Z,100562.53
2023-03-02T04:53:57.182Z,100559.97
2023-03-02T04:56:23.909Z,100559.19
2023-03-02T04:58:50.545Z,100561.59
2023-03-02T05:01:19.133Z,100565.78
2023-03-02T05:03:47.835Z,100566.25
2023-03-02T05:06:14.855Z,100565.97
2023-03-02T05:08:42.067Z,100565.00
2023-03-02T05:11:09.105Z,100565.69
2023-03-02T05:13:36.415Z,100565.88
2023-03-02T05:16:03.229Z,100566.38
2023-03-02T05:18:30.150Z,100569.00
2023-03-02T05:20:57.345Z,100565.69
2023-03-02T05:23:26.444Z,100572.63
2023-03-02T05:25:55.205Z,100577.22
2023-03-02T05:28:23.987Z,100583.22
2023-03-02T05:30:51.634Z,100574.09
2023-03-02T05:33:19.406Z,100580.00
2023-03-02T05:35:46.544Z,100586.16
2023-03-02T05:38:13.940Z,100582.56
2023-03-02T05:40:42.480Z,100573.19
2023-03-02T05:43:10.493Z,100583.69
2023-03-02T05:45:38.659Z,100590.59
2023-03-02T05:48:05.983Z,100595.75
2023-03-02T05:50:33.306Z,100603.84
2023-03-02T05:53:06.102Z,100609.72
2023-03-02T05:55:36.925Z,100602.78
2023-03-02T05:58:09.256Z,100602.38
2023-03-02T06:00:36.205Z,100603.28
2023-03-02T06:03:03.157Z,100605.09
2023-03-02T06:05:29.829Z,100610.47
2023-03-02T06:07:56.669Z,100605.09
2023-03-02T06:10:23.642Z,100605.91
2023-03-02T06:12:50.670Z,100606.28
2023-03-02T06:15:18.010Z,100607.28
2023-03-02T06:17:44.875Z,100611.50
2023-03-02T06:20:13.675Z,100624.94
2023-03-02T06:22:45.145Z,100615.94
2023-03-02T06:25:15.194Z,100613.66
2023-03-02T06:27:42.230Z,100618.84
2023-03-02T06:30:13.084Z,100622.56
2023-03-02T06:32:40.951Z,100617.00
2023-03-02T06:35:09.025Z,100617.09
2023-03-02T06:37:35.664Z,100621.81
2023-03-02T06:40:03.200Z,100618.94
2023-03-02T06:42:29.794Z,100614.22
2023-03-02T06:44:56.447Z,100615.34
2023-03-02T06:47:23.764Z,100620.56
2023-03-02T06:49:50.352Z,100623.09
2023-03-02T06:52:17.492Z,100623.81
2023-03-02T06:54:44.103Z,100630.91
2023-03-02T06:57:10.676Z,100629.66
2023-03-02T06:59:37.541Z,100633.59
2023-03-02T07:02:04.330Z,100625.50
2023-03-02T07:04:30.933Z,100633.94
2023-03-02T07:06:58.149Z,100634.84
2023-03-02T07:09:24.835Z,100635.09
2023-03-02T07:11:51.414Z,100640.41
2023-03-02T07:14:19.129Z,100642.09
2023-03-02T07:16:45.701Z,100645.19
2023-03-02T07:19:13.880Z,100645.38
2023-03-02T07:21:40.834Z,100644.75
2023-03-02T07:24:07.947Z,100643.22
2023-03-02T07:26:34.584Z,100646.25
2023-03-02T07:29:01.244Z,100645.38
2023-03-02T07:31:28.232Z,100640.47
2023-03-02T07:33:55.000Z,100642.72
2023-03-02T07:36:21.680Z,100648.81
2023-03-02T07:38:48.891Z,100651.56
2023-03-02T07:41:17.022Z,100646.41
2023-03-02T07:43:44.026Z,100653.34
2023-03-02T07:46:10.743Z,100642.84
2023-03-02T07:48:37.487Z,100649.09
2023-03-02T07:51:06.069Z,100643.06
2023-03-02T07:53:33.122Z,100642.47
2023-03-02T07:56:02.363Z,100639.53
2023-03-02T07:58:29.038Z,100637.19
2023-03-02T08:00:56.012Z,100638.28
2023-03-02T08:03:22.741Z,100638.06
2023-03-02T08:05:49.362Z,100639.69
2023-03-02T08:08:17.154Z,100643.06
2023-03-02T08:10:43.844Z,100638.13
2023-03-02T08:13:10.516Z,100638.53
2023-03-02T08:15:37.205Z,100643.03
2023-03-02T08:18:04.003Z,100631.72
2023-03-02T08:20:30.707Z,100639.44
2023-03-02T08:22:57.591Z,100640.72
2023-03-02T08:25:24.203Z,100638.28
2023-03-02T08:33:37.036Z,100632.97
2023-03-02T08:36:11.133Z,100641.69
2023-03-02T08:38:37.807Z,100632.59
2023-03-02T08:41:09.392Z,100632.41
2023-03-02T08:43:35.951Z,100634.97
2023-03-02T08:46:03.116Z,100632.34
2023-03-02T08:48:30.435Z,100638.56
2023-03-02T08:51:11.691Z,100634.69
2023-03-02T08:53:40.797Z,100644.88
2023-03-02T08:56:22.224Z,100640.13
2023-03-02T08:58:49.758Z,100636.72
2023-03-02T09:01:22.908Z,100639.75
2023-03-02T09:03:49.684Z,100642.44
2023-03-02T09:06:16.287Z,100640.72
2023-03-02T09:08:43.523Z,100642.78
2023-03-02T09:11:10.732Z,100640.75
2023-03-02T09:13:37.317Z,100640.94
2023-03-02T09:16:04.213Z,100643.56
2023-03-02T09:18:32.022Z,100641.03
2023-03-02T09:20:58.752Z,100642.81
2023-03-02T09:23:27.869Z,100635.78
2023-03-02T09:25:55.113Z,100644.31
2023-03-02T09:28:22.379Z,100636.72
2023-03-02T09:30:54.327Z,100639.06
2023-03-02T09:33:21.626Z,100632.75
2023-03-02T09:35:48.245Z,100634.41
2023-03-02T09:38:18.471Z,100632.69
2023-03-02T09:41:13.334Z,100636.94
2023-03-02T09:44:17.404Z,100634.75
2023-03-02T09:46:51.534Z,100631.19
2023-03-02T09:49:49.985Z,100632.03
2023-03-02T09:52:46.365Z,100630.91
2023-03-02T09:55:20.112Z,100634.72
2023-03-02T09:57:47.416Z,100640.16
2023-03-02T10:00:20.433Z,100638.66
2023-03-02T10:02:52.847Z,100636.84
2023-03-02T10:05:41.376Z,100636.91
2023-03-02T10:08:21.537Z,100634.06
2023-03-02T10:11:00.048Z,100633.97
2023-03-02T10:13:47.702Z,100627.50
2023-03-02T10:16:38.181Z,100634.91
2023-03-02T10:19:29.124Z,100622.25
2023-03-02T10:22:20.945Z,100636.81
2023-03-02T10:24:53.232Z,100627.31
2023-03-02T10:27:26.433Z,100635.56
2023-03-02T10:30:03.439Z,100625.72
2023-03-02T10:32:33.173Z,100625.84
2023-03-02T10:35:02.336Z,100618.06
2023-03-02T10:37:30.745Z,100626.22
2023-03-02T10:39:58.155Z,100622.56
2023-03-02T10:42:29.935Z,100620.50
2023-03-02T10:45:08.233Z,100621.47
2023-03-02T10:47:34.920Z,100618.56
2023-03-02T10:50:01.497Z,100615.44
2023-03-02T10:55:20.913Z,100614.94
2023-03-02T10:58:02.352Z,100614.34
2023-03-02T11:00:30.810Z,100608.91
2023-03-02T11:03:02.873Z,100609.63
2023-03-02T11:05:31.135Z,100608.97
2023-03-02T11:07:59.307Z,100611.81
2023-03-02T11:10:32.006Z,100608.47
2023-03-02T11:13:00.178Z,100608.13
2023-03-02T11:15:40.338Z,100605.22
2023-03-02T11:18:31.318Z,100604.16
2023-03-02T11:21:08.187Z,100596.75
2023-03-02T11:24:14.159Z,100593.00
2023-03-02T11:26:47.535Z,100596.38
2023-03-02T11:29:29.114Z,100590.16
2023-03-02T11:32:11.541Z,100589.75
2023-03-02T11:34:51.924Z,100590.59
2023-03-02T11:37:39.761Z,100578.75
2023-03-02T11:40:23.778Z,100583.78
2023-03-02T11:42:51.280Z,100578.72
2023-03-02T11:45:22.722Z,100576.88
2023-03-02T11:48:02.565Z,100579.53
2023-03-02T11:50:32.952Z,100575.56
2023-03-02T11:53:03.384Z,100571.69
2023-03-02T11:55:35.873Z,100577.25
2023-03-02T11:58:05.120Z,100582.81
2023-03-02T12:00:35.834Z,100572.69
2023-03-02T12:03:18.570Z,100573.84
2023-03-02T12:05:51.207Z,100566.44
2023-03-02T12:08:21.151Z,100563.94
2023-03-02T12:10:59.649Z,100567.84
2023-03-02T12:13:33.267Z,100568.03
2023-03-02T12:16:00.165Z,100564.41
2023-03-02T12:18:31.296Z,100561.69
2023-03-02T12:21:18.792Z,100556.50
2023-03-02T12:23:51.370Z,100568.97
2023-03-02T12:26:20.974Z,100554.94
2023-03-02T12:29:11.172Z,100546.13
2023-03-02T12:31:50.102Z,100556.97
2023-03-02T12:34:25.749Z,100557.53
2023-03-02T12:36:58.434Z,100555.38
2023-03-02T12:39:39.220Z,100558.00
2023-03-02T12:42:44.168Z,100550.63
2023-03-02T12:45:41.541Z,100554.16
2023-03-02T12:48:36.371Z,100549.09
2023-03-02T12:51:05.252Z,100548.97
2023-03-02T12:53:32.208Z,100548.47
2023-03-02T12:55:58.962Z,100551.16
2023-03-02T12:58:28.852Z,100548.22
2023-03-02T13:00:56.828Z,100547.59
2023-03-02T13:03:23.834Z,100544.88
2023-03-02T13:05:50.512Z,100538.25
2023-03-02T13:08:28.736Z,100540.13
2023-03-02T13:10:58.496Z,100531.63
2023-03-02T13:13:39.773Z,100530.31
2023-03-02T13:16:20.180Z,100529.34
2023-03-02T13:18:49.952Z,100535.75
2023-03-02T13:21:19.033Z,100533.47
2023-03-02T13:23:51.898Z,100529.38
2023-03-02T13:26:42.384Z,100525.94
2023-03-02T13:29:23.105Z,100522.81
2023-03-02T13:31:53.058Z,100528.38
2023-03-02T13:34:24.229Z,100515.25
2023-03-02T13:36:51.447Z,100514.94
2023-03-02T13:39:26.091Z,100516.38
2023-03-02T13:42:03.625Z,100516.25
2023-03-02T13:44:36.352Z,100510.75
2023-03-02T13:47:04.353Z,100500.41
2023-03-02T13:49:36.158Z,100502.28
2023-03-02T13:52:21.324Z,100499.38
2023-03-02T13:54:48.215Z,100505.91
2023-03-02T13:57:18.770Z,100499.09
2023-03-02T13:59:45.429Z,100497.00
2023-03-02T14:02:23.455Z,100502.16
2023-03-02T14:04:50.285Z,100494.97
2023-03-02T14:07:17.688Z,100500.25
2023-03-02T14:09:45.617Z,100487.19
2023-03-02T14:12:20.511Z,100495.69
2023-03-02T14:14:47.267Z,100494.38
2023-03-02T14:17:16.744Z,100489.06
2023-03-02T14:19:43.332Z,100496.47
2023-03-02T14:22:11.515Z,100482.34
2023-03-02T14:24:38.050Z,100481.66
2023-03-02T14:27:04.594Z,100480.34
2023-03-02T14:29:34.638Z,100483.69
2023-03-02T14:32:04.434Z,100483.63
2023-03-02T14:34:31.007Z,100487.84
2023-03-02T14:37:02.246Z,100475.91
2023-03-02T14:39:40.615Z,100479.56
2023-03-02T14:42:12.948Z,100478.94
2023-03-02T14:44:40.162Z,100477.50
2023-03-02T14:47:07.444Z,100481.53
2023-03-02T14:49:34.098Z,100482.53
2023-03-02T14:52:12.854Z,100474.34
2023-03-02T14:54:46.234Z,100474.88
2023-03-02T14:57:19.783Z,100477.16
2023-03-02T14:59:46.797Z,100476.47
2023-03-02T15:02:24.895Z,100474.25
2023-03-02T15:04:56.026Z,100475.25
2023-03-02T15:07:25.272Z,100471.34
2023-03-02T15:09:51.883Z,100475.75
2023-03-02T15:12:18.423Z,100476.22
2023-03-02T15:14:45.029Z,100477.38
2023-03-02T15:17:11.653Z,100476.63
2023-03-02T15:19:38.219Z,100472.56
2023-03-02T15:22:05.332Z,100481.81
2023-03-02T15:24:33.336Z,100475.97
2023-03-02T15:27:00.331Z,100486.91
2023-03-02T15:29:26.935Z,100483.81
2023-03-02T15:31:53.771Z,100480.03
2023-03-02T15:34:20.585Z,100481.72
2023-03-02T15:36:50.226Z,100480.44
2023-03-02T15:39:17.144Z,100485.03
2023-03-02T15:41:43.718Z,100484.28
2023-03-02T15:44:22.962Z,100486.03
2023-03-02T15:46:51.765Z,100478.78
2023-03-02T15:49:22.859Z,100483.78
2023-03-02T15:51:52.131Z,100485.78
2023-03-02T15:54:18.740Z,100487.25
2023-03-02T15:56:45.410Z,100482.44
2023-03-02T15:59:12.306Z,100486.72
2023-03-02T16:01:38.884Z,100497.75
2023-03-02T16:04:05.797Z,100487.63
2023-03-02T16:06:32.361Z,100496.00
2023-03-02T16:08:58.907Z,100477.97
2023-03-02T16:11:25.616Z,100493.19
2023-03-02T16:13:52.577Z,100493.78
2023-03-02T16:16:20.828Z,100493.44
2023-03-02T16:18:51.970Z,100495.34
2023-03-02T16:21:19.092Z,100487.78
2023-03-02T16:23:46.879Z,100491.34
2023-03-02T16:26:19.818Z,100487.63
2023-03-02T16:28:46.637Z,100488.03
2023-03-02T16:31:18.464Z,100490.84
2023-03-02T16:33:47.009Z,100495.59
2023-03-02T16:36:14.486Z,100494.66
2023-03-02T16:38:41.378Z,100499.81
2023-03-02T16:41:17.244Z,100493.63
2023-03-02T16:43:55.893Z,100499.91
2023-03-02T16:46:24.711Z,100499.59
2023-03-02T16:48:51.821Z,100500.69
2023-03-02T16:51:19.422Z,100506.50
2023-03-02T16:53:47.138Z,100518.44
2023-03-02T16:56:14.660Z,100508.44
2023-03-02T16:58:41.935Z,100507.00
2023-03-02T17:01:12.443Z,100508.03
2023-03-02T17:03:39.537Z,100509.91
2023-03-02T17:06:07.911Z,100511.69
2023-03-02T17:08:35.798Z,100516.03
2023-03-02T17:11:02.667Z,100518.53
2023-03-02T17:13:29.529Z,100521.47
2023-03-02T17:15:57.684Z,100517.31
2023-03-02T17:18:24.518Z,100513.91
2023-03-02T17:20:52.467Z,100520.41
2023-03-02T17:23:19.035Z,100514.47
2023-03-02T17:25:45.598Z,100519.72
2023-03-02T17:28:16.018Z,100511.94
2023-03-02T17:30:43.502Z,100516.06
2023-03-02T17:33:10.852Z,100517.97
2023-03-02T17:35:37.820Z,100522.13
2023-03-02T17:38:04.761Z,100516.31
2023-03-02T17:40:32.222Z,100515.25
2023-03-02T17:42:58.796Z,100511.63
2023-03-02T17:45:27.726Z,100512.81
2023-03-02T17:47:58.006Z,100521.38
2023-03-02T17:50:24.931Z,100513.50
2023-03-02T17:52:51.504Z,100522.34
2023-03-02T17:55:18.756Z,100513.41
2023-03-02T17:57:45.422Z,100517.44
2023-03-02T18:00:15.872Z,100518.84
2023-03-02T18:02:42.551Z,100523.50
2023-03-02T18:05:10.194Z,100523.09
2023-03-02T18:07:37.302Z,100527.16
2023-03-02T18:10:04.847Z,100520.97
2023-03-02T18:12:31.681Z,100526.25
2023-03-02T18:14:58.249Z,100528.06
2023-03-02T18:17:24.899Z,100524.88
2023-03-02T18:19:51.533Z,100532.34
2023-03-02T18:22:18.220Z,100532.09
2023-03-02T18:24:44.894Z,100528.13
2023-03-02T18:27:11.473Z,100525.22
2023-03-02T18:29:37.997Z,100527.28
2023-03-02T18:32:06.923Z,100524.09
2023-03-02T18:34:33.583Z,100531.94
2023-03-02T18:37:00.171Z,100521.75
2023-03-02T18:39:26.797Z,100534.38
2023-03-02T18:41:53.301Z,100529.81
2023-03-02T18:44:20.027Z,100533.78
2023-03-02T18:46:46.781Z,100526.41
2023-03-02T18:49:13.412Z,100536.47
2023-03-02T18:51:39.998Z,100525.75
2023-03-02T18:54:07.580Z,100530.41
2023-03-02T18:56:34.287Z,100530.28
2023-03-02T18:59:00.980Z,100527.78
2023-03-02T19:01:31.948Z,100529.97
2023-03-02T19:03:59.303Z,100531.34
2023-03-02T19:06:25.918Z,100526.03
2023-03-02T19:08:52.503Z,100528.50
2023-03-02T19:11:19.034Z,100532.22
2023-03-02T19:13:46.755Z,100531.09
2023-03-02T19:16:13.681Z,100529.66
2023-03-02T19:18:40.623Z,100523.53
2023-03-02T19:21:07.294Z,100535.41
2023-03-02T19:23:34.166Z,100529.53
2023-03-02T19:26:01.180Z,100533.28
2023-03-02T19:28:28.140Z,100529.88
2023-03-02T19:30:54.789Z,100528.63
2023-03-02T19:33:24.687Z,100534.34
2023-03-02T19:35:51.361Z,100528.25
2023-03-02T19:38:19.225Z,100532.91
2023-03-02T19:40:45.829Z,100535.66
2023-03-02T19:43:12.451Z,100534.13
2023-03-02T19:45:39.119Z,100532.84
2023-03-02T19:48:06.384Z,100528.63
2023-03-02T19:50:33.116Z,100536.41
2023-03-02T19:52:59.793Z,100542.75
2023-03-02T19:55:27.069Z,100534.06
2023-03-02T19:58:00.262Z,100528.84
2023-03-02T20:00:29.708Z,100528.38
2023-03-02T20:02:57.589Z,100528.31
2023-03-02T20:05:26.031Z,100528.84
2023-03-02T20:07:53.034Z,100527.28
2023-03-02T20:10:42.394Z,100524.78
2023-03-02T20:13:09.503Z,100523.69
2023-03-02T20:15:42.238Z,100523.31
2023-03-02T20:18:20.421Z,100528.28
2023-03-02T20:20:47.269Z,100524.97
2023-03-02T20:23:15.061Z,100527.47
2023-03-02T20:25:41.688Z,100531.34
2023-03-02T20:28:13.000Z,100527.09
2023-03-02T20:30:44.634Z,100527.97
2023-03-02T20:33:12.590Z,100530.94
2023-03-02T20:35:41.824Z,100533.53
2023-03-02T20:38:14.274Z,100524.38
2023-03-02T20:40:41.482Z,100519.34
2023-03-02T20:43:08.143Z,100529.41
2023-03-02T20:45:35.187Z,100528.25
2023-03-02T20:48:03.487Z,100525.41
2023-03-02T20:50:31.914Z,100522.94
2023-03-02T20:52:59.073Z,100529.25
2023-03-02T20:55:26.997Z,100520.09
2023-03-02T20:57:57.307Z,100520.06
2023-03-02T21:00:27.053Z,100519.94
2023-03-02T21:02:53.913Z,100513.28
2023-03-02T21:05:21.178Z,100522.59
2023-03-02T21:07:48.874Z,100512.47
2023-03-02T21:10:19.211Z,100505.22
2023-03-02T21:12:46.022Z,100506.78
2023-03-02T21:15:13.126Z,100508.19
2023-03-02T21:17:39.795Z,100498.72
2023-03-02T21:20:07.157Z,100506.25
2023-03-02T21:22:34.064Z,100508.13
2023-03-02T21:25:00.759Z,100512.00
2023-03-02T21:27:27.340Z,100508.25
2023-03-02T21:29:53.884Z,100498.78
2023-03-02T21:32:20.607Z,100498.22
2023-03-02T21:34:47.313Z,100502.91
2023-03-02T21:37:13.996Z,100500.94
2023-03-02T21:39:40.561Z,100499.34
2023-03-02T21:42:07.695Z,100506.53
2023-03-02T21:44:34.249Z,100496.72
2023-03-02T21:47:00.927Z,100495.84
2023-03-02T21:49:27.770Z,100493.03
2023-03-02T21:51:54.344Z,100502.69
2023-03-02T21:54:20.933Z,100496.66
2023-03-02T21:56:47.596Z,100498.84
2023-03-02T21:59:14.210Z,100495.09
2023-03-02T22:01:41.227Z,100490.34
2023-03-02T22:04:07.970Z,100496.38
2023-03-02T22:06:35.569Z,100493.94
2023-03-02T22:09:02.776Z,100496.13
2023-03-02T22:11:33.020Z,100479.31
2023-03-02T22:14:02.464Z,100482.13
2023-03-02T22:16:36.109Z,100479.47
2023-03-02T22:19:18.413Z,100476.78
2023-03-02T22:21:48.870Z,100469.97
2023-03-02T22:24:33.834Z,100469.09
2023-03-02T22:27:19.143Z,100472.84
2023-03-02T22:29:47.787Z,100469.78
2023-03-02T22:32:20.910Z,100469.34
2023-03-02T22:34:51.026Z,100469.91
2023-03-02T22:37:23.616Z,100464.78
2023-03-02T22:39:57.688Z,100473.25
2023-03-02T22:42:27.068Z,100477.25
2023-03-02T22:45:06.612Z,100469.50
2023-03-02T22:47:33.207Z,100468.41
2023-03-02T22:50:11.374Z,100471.03
2023-03-02T22:52:41.753Z,100471.69
2023-03-02T22:55:34.296Z,100468.50
2023-03-02T22:58:38.549Z,100472.97
2023-03-02T23:01:18.041Z,100467.13
2023-03-02T23:03:46.506Z,100467.47
2023-03-02T23:06:37.142Z,100458.75
2023-03-02T23:09:05.991Z,100460.94
2023-03-02T23:11:37.705Z,100456.22
2023-03-02T23:14:17.237Z,100460.09
2023-03-02T23:16:44.051Z,100457.06
2023-03-02T23:19:10.803Z,100452.25
2023-03-02T23:21:41.090Z,100452.03
2023-03-02T23:24:08.526Z,100438.22
2023-03-02T23:26:36.077Z,100451.09
2023-03-02T23:29:02.766Z,100446.22
2023-03-02T23:31:29.401Z,100442.78
2023-03-02T23:33:56.097Z,100444.44
2023-03-02T23:36:22.736Z,100445.09
2023-03-02T23:38:50.192Z,100440.25
2023-03-02T23:41:17.087Z,100438.53
2023-03-02T23:43:43.840Z,100446.56
2023-03-02T23:46:14.029Z,100443.44
2023-03-02T23:48:41.904Z,100445.00
2023-03-02T23:51:09.436Z,100438.81
2023-03-02T23:53:36.152Z,100438.19
2023-03-02T23:56:02.758Z,100437.06
2023-03-02T23:58:29.315Z,100438.97
